VV646B KPDX-
Flight info
| Callsign | VV646B |
|---|---|
| Flight time | N/A |
| Altitude | VFR/060 |
| Route | VFR DEP E |
| Aircraft | H60/M-VGD/C |
Departure
| Time | 2026-05-05 02:17 |
|---|---|
| Airport | Portland International Airport (KPDX) |
Arrival
| Time | N/A |
|---|---|
| Airport | - |
| Time | Latitude | Longitude | Altitude | Speed | Heading |
|---|---|---|---|---|---|
| 2026-05-05 02:14 | 45.58285 | -122.59880 | 26 ft | 0 kts | 296° |
| 2026-05-05 02:16 | 45.58293 | -122.59806 | 70 ft | 35 kts | 109° |
| 2026-05-05 02:16 | 45.58165 | -122.59108 | 250 ft | 106 kts | 106° |
| 2026-05-05 02:16 | 45.57868 | -122.57990 | 222 ft | 124 kts | 137° |
| 2026-05-05 02:16 | 45.57213 | -122.57222 | 506 ft | 120 kts | 146° |
| 2026-05-05 02:17 | 45.56464 | -122.56749 | 513 ft | 118 kts | 149° |
| 2026-05-05 02:17 | 45.55918 | -122.55820 | 568 ft | 128 kts | 131° |
| 2026-05-05 02:17 | 45.55256 | -122.54896 | 783 ft | 139 kts | 147° |
| 2026-05-05 02:17 | 45.54460 | -122.54066 | 853 ft | 144 kts | 138° |
| 2026-05-05 02:18 | 45.53771 | -122.52995 | 1016 ft | 150 kts | 136° |
| 2026-05-05 02:18 | 45.52993 | -122.52006 | 1207 ft | 148 kts | 136° |
| 2026-05-05 02:18 | 45.52362 | -122.50841 | 1286 ft | 149 kts | 134° |
| 2026-05-05 02:18 | 45.51651 | -122.49739 | 1433 ft | 157 kts | 139° |
| 2026-05-05 02:19 | 45.50851 | -122.48599 | 1451 ft | 166 kts | 140° |
| 2026-05-05 02:19 | 45.49993 | -122.47469 | 1530 ft | 171 kts | 143° |
| 2026-05-05 02:19 | 45.49141 | -122.46266 | 1632 ft | 175 kts | 130° |
| 2026-05-05 02:19 | 45.48616 | -122.44703 | 1815 ft | 176 kts | 114° |
| 2026-05-05 02:20 | 45.48265 | -122.43071 | 1808 ft | 163 kts | 108° |
| 2026-05-05 02:20 | 45.48017 | -122.41591 | 1813 ft | 145 kts | 108° |
| 2026-05-05 02:20 | 45.47795 | -122.40230 | 1824 ft | 137 kts | 108° |
| 2026-05-05 02:20 | 45.47568 | -122.38955 | 1829 ft | 132 kts | 108° |
| 2026-05-05 02:21 | 45.47342 | -122.37688 | 1832 ft | 131 kts | 108° |
| 2026-05-05 02:21 | 45.47132 | -122.36417 | 1827 ft | 132 kts | 108° |
| 2026-05-05 02:21 | 45.46912 | -122.35155 | 1829 ft | 131 kts | 108° |
| 2026-05-05 02:21 | 45.46702 | -122.33884 | 1825 ft | 132 kts | 108° |
| 2026-05-05 02:22 | 45.46494 | -122.32603 | 2104 ft | 128 kts | 108° |
| 2026-05-05 02:22 | 45.46286 | -122.31403 | 3148 ft | 127 kts | 107° |
| 2026-05-05 02:22 | 45.46013 | -122.30146 | 4021 ft | 139 kts | 106° |
| 2026-05-05 02:22 | 45.45733 | -122.28777 | 4631 ft | 149 kts | 103° |
| 2026-05-05 02:23 | 45.45441 | -122.27340 | 5285 ft | 151 kts | 102° |
| 2026-05-05 02:23 | 45.45141 | -122.25900 | 5944 ft | 153 kts | 101° |
| 2026-05-05 02:23 | 45.44836 | -122.24484 | 6006 ft | 153 kts | 100° |
| 2026-05-05 02:23 | 45.44528 | -122.23062 | 6052 ft | 149 kts | 100° |
| 2026-05-05 02:24 | 45.44222 | -122.21666 | 6065 ft | 147 kts | 100° |
| 2026-05-05 02:24 | 45.43917 | -122.20274 | 6063 ft | 147 kts | 100° |
| 2026-05-05 02:24 | 45.43612 | -122.18891 | 6065 ft | 146 kts | 100° |
| 2026-05-05 02:24 | 45.43312 | -122.17506 | 6074 ft | 147 kts | 100° |
| 2026-05-05 02:25 | 45.43012 | -122.16113 | 6075 ft | 148 kts | 100° |
| 2026-05-05 02:25 | 45.42708 | -122.14714 | 6077 ft | 148 kts | 100° |
| 2026-05-05 02:25 | 45.42389 | -122.13318 | 6076 ft | 148 kts | 101° |
| 2026-05-05 02:25 | 45.42069 | -122.11923 | 6077 ft | 148 kts | 101° |
| 2026-05-05 02:26 | 45.41752 | -122.10526 | 6096 ft | 147 kts | 101° |
| 2026-05-05 02:26 | 45.41450 | -122.09124 | 6088 ft | 149 kts | 101° |
| 2026-05-05 02:26 | 45.41154 | -122.07722 | 6180 ft | 148 kts | 100° |
| 2026-05-05 02:26 | 45.40860 | -122.06322 | 6221 ft | 148 kts | 100° |
| 2026-05-05 02:27 | 45.40561 | -122.04924 | 6204 ft | 148 kts | 100° |
| 2026-05-05 02:27 | 45.40261 | -122.03526 | 6180 ft | 149 kts | 100° |
| 2026-05-05 02:27 | 45.39962 | -122.02114 | 6183 ft | 149 kts | 100° |
| 2026-05-05 02:27 | 45.39666 | -122.00702 | 6184 ft | 149 kts | 100° |
| 2026-05-05 02:28 | 45.39378 | -121.99309 | 6180 ft | 148 kts | 100° |
| 2026-05-05 02:28 | 45.39089 | -121.97903 | 6178 ft | 148 kts | 100° |
| 2026-05-05 02:28 | 45.38796 | -121.96501 | 6190 ft | 147 kts | 100° |
| 2026-05-05 02:28 | 45.38522 | -121.95101 | 6404 ft | 146 kts | 96° |
| 2026-05-05 02:29 | 45.38314 | -121.93635 | 6947 ft | 158 kts | 91° |
| 2026-05-05 02:29 | 45.38157 | -121.92004 | 7080 ft | 175 kts | 90° |
| 2026-05-05 02:29 | 45.38034 | -121.90331 | 7423 ft | 164 kts | 88° |
| 2026-05-05 02:29 | 45.37962 | -121.88736 | 7900 ft | 158 kts | 88° |
| 2026-05-05 02:30 | 45.37900 | -121.87218 | 8409 ft | 150 kts | 89° |
| 2026-05-05 02:30 | 45.37846 | -121.85747 | 8875 ft | 149 kts | 87° |
| 2026-05-05 02:30 | 45.37828 | -121.84236 | 9163 ft | 156 kts | 86° |
| 2026-05-05 02:30 | 45.37814 | -121.82673 | 9432 ft | 159 kts | 88° |
| 2026-05-05 02:31 | 45.37779 | -121.81088 | 9642 ft | 161 kts | 90° |
| 2026-05-05 02:31 | 45.37725 | -121.79539 | 9927 ft | 153 kts | 89° |
| 2026-05-05 02:31 | 45.37686 | -121.78081 | 10338 ft | 141 kts | 88° |
| 2026-05-05 02:31 | 45.37590 | -121.76705 | 10692 ft | 142 kts | 92° |
| 2026-05-05 02:32 | 45.37588 | -121.76684 | 10695 ft | 142 kts | 92° |
| 2026-05-05 02:32 | 45.37571 | -121.76452 | 10739 ft | 142 kts | 99° |
| 2026-05-05 02:32 | 45.37489 | -121.75024 | 10957 ft | 151 kts | 89° |
| 2026-05-05 02:32 | 45.37429 | -121.73471 | 10922 ft | 162 kts | 88° |
| 2026-05-05 02:33 | 45.37418 | -121.71892 | 10989 ft | 149 kts | 88° |
| 2026-05-05 02:33 | 45.37501 | -121.70676 | 11154 ft | 92 kts | 82° |
| 2026-05-05 02:33 | 45.37510 | -121.69997 | 11171 ft | 49 kts | 103° |
| 2026-05-05 02:33 | 45.37370 | -121.69669 | 11157 ft | 48 kts | 175° |
| 2026-05-05 02:34 | 45.36979 | -121.70246 | 9999 ft | 140 kts | 233° |
| 2026-05-05 02:34 | 45.37013 | -121.71768 | 8247 ft | 174 kts | 266° |
| 2026-05-05 02:34 | 45.37237 | -121.73015 | 7493 ft | 106 kts | 339° |
| 2026-05-05 02:34 | 45.37526 | -121.73300 | 6944 ft | 53 kts | 353° |
| 2026-05-05 02:35 | 45.37828 | -121.73351 | 6732 ft | 2 kts | 82° |
| 2026-05-05 02:35 | 45.37831 | -121.73349 | 6735 ft | 4 kts | 89° |
| 2026-05-05 02:35 | 45.37848 | -121.73323 | 6746 ft | 3 kts | 87° |
| 2026-05-05 02:35 | 45.37856 | -121.73330 | 6811 ft | 5 kts | 101° |
| 2026-05-05 02:36 | 45.37851 | -121.73377 | 6828 ft | 6 kts | 107° |
| 2026-05-05 02:36 | 45.37832 | -121.73335 | 6737 ft | 11 kts | 264° |
| 2026-05-05 02:36 | 45.37836 | -121.73372 | 6727 ft | 0 kts | 274° |
| 2026-05-05 02:36 | 45.37842 | -121.73389 | 6722 ft | 0 kts | 287° |
| 2026-05-05 02:37 | 45.37884 | -121.73779 | 6752 ft | 78 kts | 289° |
| 2026-05-05 02:37 | 45.38031 | -121.74732 | 6760 ft | 111 kts | 288° |
| 2026-05-05 02:38 | 45.38132 | -121.75487 | 6754 ft | 122 kts | 288° |
| 2026-05-05 02:38 | 45.38317 | -121.76713 | 6750 ft | 130 kts | 288° |
| 2026-05-05 02:38 | 45.38493 | -121.77942 | 6762 ft | 119 kts | 288° |